sensor_id;sensor_type;location;lat;lon;timestamp;P1;durP1;ratioP1;P2;durP2;ratioP2
29044;SDS011;16133;49.486;12.176;2023-09-19T00:00:23;7.20;;;4.07;;
29044;SDS011;16133;49.486;12.176;2023-09-19T00:02:57;6.57;;;4.65;;
29044;SDS011;16133;49.486;12.176;2023-09-19T00:05:26;6.38;;;4.07;;
29044;SDS011;16133;49.486;12.176;2023-09-19T00:07:53;8.50;;;4.53;;
29044;SDS011;16133;49.486;12.176;2023-09-19T00:10:19;8.35;;;4.43;;
29044;SDS011;16133;49.486;12.176;2023-09-19T00:12:50;7.13;;;4.30;;
29044;SDS011;16133;49.486;12.176;2023-09-19T00:15:23;5.47;;;3.78;;
29044;SDS011;16133;49.486;12.176;2023-09-19T00:17:56;8.55;;;3.55;;
29044;SDS011;16133;49.486;12.176;2023-09-19T00:20:22;6.93;;;4.13;;
29044;SDS011;16133;49.486;12.176;2023-09-19T00:22:48;7.85;;;3.28;;
29044;SDS011;16133;49.486;12.176;2023-09-19T00:25:18;7.03;;;3.90;;
29044;SDS011;16133;49.486;12.176;2023-09-19T00:27:45;6.20;;;2.92;;
29044;SDS011;16133;49.486;12.176;2023-09-19T00:30:15;6.70;;;3.85;;
29044;SDS011;16133;49.486;12.176;2023-09-19T00:32:49;6.55;;;3.90;;
29044;SDS011;16133;49.486;12.176;2023-09-19T00:35:19;6.55;;;3.63;;
29044;SDS011;16133;49.486;12.176;2023-09-19T00:37:45;6.43;;;3.47;;
29044;SDS011;16133;49.486;12.176;2023-09-19T00:40:10;6.20;;;3.92;;
29044;SDS011;16133;49.486;12.176;2023-09-19T00:42:41;7.63;;;3.90;;
29044;SDS011;16133;49.486;12.176;2023-09-19T00:45:10;7.05;;;3.28;;
29044;SDS011;16133;49.486;12.176;2023-09-19T00:47:43;6.22;;;3.22;;
29044;SDS011;16133;49.486;12.176;2023-09-19T00:50:11;5.93;;;3.78;;
29044;SDS011;16133;49.486;12.176;2023-09-19T00:52:39;5.63;;;3.67;;
29044;SDS011;16133;49.486;12.176;2023-09-19T00:55:07;6.25;;;3.17;;
29044;SDS011;16133;49.486;12.176;2023-09-19T00:57:33;11.30;;;3.53;;
29044;SDS011;16133;49.486;12.176;2023-09-19T00:59:59;6.20;;;3.53;;
29044;SDS011;16133;49.486;12.176;2023-09-19T01:02:30;6.00;;;3.08;;
29044;SDS011;16133;49.486;12.176;2023-09-19T01:04:57;8.52;;;4.28;;
29044;SDS011;16133;49.486;12.176;2023-09-19T01:07:23;9.00;;;3.70;;
29044;SDS011;16133;49.486;12.176;2023-09-19T01:09:48;5.70;;;3.38;;
29044;SDS011;16133;49.486;12.176;2023-09-19T01:12:16;5.60;;;3.28;;
29044;SDS011;16133;49.486;12.176;2023-09-19T01:17:44;6.28;;;3.45;;
29044;SDS011;16133;49.486;12.176;2023-09-19T01:20:17;5.43;;;3.22;;
29044;SDS011;16133;49.486;12.176;2023-09-19T01:25:33;7.05;;;3.17;;
29044;SDS011;16133;49.486;12.176;2023-09-19T01:30:39;4.45;;;2.67;;
29044;SDS011;16133;49.486;12.176;2023-09-19T01:33:08;4.00;;;2.33;;
29044;SDS011;16133;49.486;12.176;2023-09-19T01:35:37;3.97;;;2.60;;
29044;SDS011;16133;49.486;12.176;2023-09-19T01:38:04;4.00;;;2.60;;
29044;SDS011;16133;49.486;12.176;2023-09-19T01:40:39;4.20;;;3.28;;
29044;SDS011;16133;49.486;12.176;2023-09-19T01:45:56;4.55;;;2.72;;
29044;SDS011;16133;49.486;12.176;2023-09-19T01:48:42;9.43;;;3.33;;
29044;SDS011;16133;49.486;12.176;2023-09-19T01:51:13;5.65;;;2.83;;
29044;SDS011;16133;49.486;12.176;2023-09-19T01:56:36;6.05;;;3.55;;
29044;SDS011;16133;49.486;12.176;2023-09-19T01:59:10;8.88;;;3.08;;
29044;SDS011;16133;49.486;12.176;2023-09-19T02:01:39;5.70;;;3.10;;
29044;SDS011;16133;49.486;12.176;2023-09-19T02:04:05;6.35;;;3.63;;
29044;SDS011;16133;49.486;12.176;2023-09-19T02:06:32;4.80;;;2.88;;
29044;SDS011;16133;49.486;12.176;2023-09-19T02:08:59;6.28;;;3.30;;
29044;SDS011;16133;49.486;12.176;2023-09-19T02:11:24;4.43;;;2.83;;
29044;SDS011;16133;49.486;12.176;2023-09-19T02:13:50;7.25;;;3.05;;
29044;SDS011;16133;49.486;12.176;2023-09-19T02:16:19;6.47;;;3.17;;
29044;SDS011;16133;49.486;12.176;2023-09-19T02:18:45;10.07;;;3.67;;
29044;SDS011;16133;49.486;12.176;2023-09-19T02:21:13;4.75;;;3.03;;
29044;SDS011;16133;49.486;12.176;2023-09-19T02:23:38;4.90;;;3.10;;
29044;SDS011;16133;49.486;12.176;2023-09-19T02:26:04;4.22;;;2.88;;
29044;SDS011;16133;49.486;12.176;2023-09-19T02:28:30;7.68;;;3.35;;
29044;SDS011;16133;49.486;12.176;2023-09-19T02:30:57;6.07;;;3.40;;
29044;SDS011;16133;49.486;12.176;2023-09-19T02:33:23;4.88;;;3.17;;
29044;SDS011;16133;49.486;12.176;2023-09-19T02:35:48;4.45;;;2.83;;
29044;SDS011;16133;49.486;12.176;2023-09-19T02:38:13;6.80;;;3.45;;
29044;SDS011;16133;49.486;12.176;2023-09-19T02:40:43;6.38;;;3.50;;
29044;SDS011;16133;49.486;12.176;2023-09-19T02:43:08;5.75;;;3.53;;
29044;SDS011;16133;49.486;12.176;2023-09-19T02:45:34;8.65;;;3.60;;
29044;SDS011;16133;49.486;12.176;2023-09-19T02:48:00;5.88;;;3.53;;
29044;SDS011;16133;49.486;12.176;2023-09-19T02:50:30;7.57;;;3.58;;
29044;SDS011;16133;49.486;12.176;2023-09-19T02:52:56;6.07;;;3.47;;
29044;SDS011;16133;49.486;12.176;2023-09-19T02:55:21;5.43;;;3.47;;
29044;SDS011;16133;49.486;12.176;2023-09-19T02:57:51;6.88;;;3.35;;
29044;SDS011;16133;49.486;12.176;2023-09-19T03:00:17;6.85;;;3.15;;
29044;SDS011;16133;49.486;12.176;2023-09-19T03:02:50;5.18;;;3.30;;
29044;SDS011;16133;49.486;12.176;2023-09-19T03:05:16;8.55;;;4.13;;
29044;SDS011;16133;49.486;12.176;2023-09-19T03:07:43;7.32;;;3.88;;
29044;SDS011;16133;49.486;12.176;2023-09-19T03:10:10;9.48;;;3.90;;
29044;SDS011;16133;49.486;12.176;2023-09-19T03:12:36;5.68;;;3.42;;
29044;SDS011;16133;49.486;12.176;2023-09-19T03:15:02;7.03;;;4.15;;
29044;SDS011;16133;49.486;12.176;2023-09-19T03:17:29;5.88;;;3.80;;
29044;SDS011;16133;49.486;12.176;2023-09-19T03:19:55;6.88;;;3.70;;
29044;SDS011;16133;49.486;12.176;2023-09-19T03:22:20;5.57;;;3.50;;
29044;SDS011;16133;49.486;12.176;2023-09-19T03:24:46;7.50;;;4.35;;
29044;SDS011;16133;49.486;12.176;2023-09-19T03:27:11;5.95;;;3.22;;
29044;SDS011;16133;49.486;12.176;2023-09-19T03:29:41;10.75;;;3.85;;
29044;SDS011;16133;49.486;12.176;2023-09-19T03:32:06;7.03;;;4.10;;
29044;SDS011;16133;49.486;12.176;2023-09-19T03:34:32;7.85;;;4.18;;
29044;SDS011;16133;49.486;12.176;2023-09-19T03:36:57;9.02;;;4.05;;
29044;SDS011;16133;49.486;12.176;2023-09-19T03:39:23;6.72;;;3.65;;
29044;SDS011;16133;49.486;12.176;2023-09-19T03:41:48;7.10;;;3.78;;
29044;SDS011;16133;49.486;12.176;2023-09-19T03:44:14;6.45;;;3.58;;
29044;SDS011;16133;49.486;12.176;2023-09-19T03:46:40;7.55;;;4.22;;
29044;SDS011;16133;49.486;12.176;2023-09-19T03:49:05;6.07;;;3.63;;
29044;SDS011;16133;49.486;12.176;2023-09-19T03:51:31;8.65;;;4.53;;
29044;SDS011;16133;49.486;12.176;2023-09-19T03:53:56;9.02;;;4.75;;
29044;SDS011;16133;49.486;12.176;2023-09-19T03:56:21;8.63;;;4.40;;
29044;SDS011;16133;49.486;12.176;2023-09-19T03:58:47;7.45;;;4.15;;
29044;SDS011;16133;49.486;12.176;2023-09-19T04:01:12;8.38;;;3.83;;
29044;SDS011;16133;49.486;12.176;2023-09-19T04:03:38;7.30;;;3.65;;
29044;SDS011;16133;49.486;12.176;2023-09-19T04:06:16;7.88;;;4.38;;
29044;SDS011;16133;49.486;12.176;2023-09-19T04:08:42;9.48;;;4.43;;
29044;SDS011;16133;49.486;12.176;2023-09-19T04:11:09;8.18;;;4.95;;
29044;SDS011;16133;49.486;12.176;2023-09-19T04:13:34;6.78;;;4.22;;
29044;SDS011;16133;49.486;12.176;2023-09-19T04:16:00;8.88;;;4.05;;
29044;SDS011;16133;49.486;12.176;2023-09-19T04:18:26;7.50;;;4.40;;
29044;SDS011;16133;49.486;12.176;2023-09-19T04:20:51;6.75;;;3.72;;
29044;SDS011;16133;49.486;12.176;2023-09-19T04:23:17;7.85;;;3.95;;
29044;SDS011;16133;49.486;12.176;2023-09-19T04:25:46;6.97;;;4.15;;
29044;SDS011;16133;49.486;12.176;2023-09-19T04:28:11;8.00;;;4.93;;
29044;SDS011;16133;49.486;12.176;2023-09-19T04:30:37;9.00;;;3.75;;
29044;SDS011;16133;49.486;12.176;2023-09-19T04:33:05;8.38;;;4.53;;
29044;SDS011;16133;49.486;12.176;2023-09-19T04:35:31;6.35;;;4.45;;
29044;SDS011;16133;49.486;12.176;2023-09-19T04:37:57;7.90;;;4.13;;
29044;SDS011;16133;49.486;12.176;2023-09-19T04:40:22;7.20;;;4.32;;
29044;SDS011;16133;49.486;12.176;2023-09-19T04:42:55;6.25;;;3.83;;
29044;SDS011;16133;49.486;12.176;2023-09-19T04:45:25;6.18;;;3.72;;
29044;SDS011;16133;49.486;12.176;2023-09-19T04:47:54;5.90;;;3.63;;
29044;SDS011;16133;49.486;12.176;2023-09-19T04:50:20;5.90;;;3.75;;
29044;SDS011;16133;49.486;12.176;2023-09-19T04:52:51;6.22;;;3.60;;
29044;SDS011;16133;49.486;12.176;2023-09-19T04:55:17;7.15;;;4.50;;
29044;SDS011;16133;49.486;12.176;2023-09-19T04:57:47;8.15;;;4.45;;
29044;SDS011;16133;49.486;12.176;2023-09-19T05:00:14;7.35;;;3.58;;
29044;SDS011;16133;49.486;12.176;2023-09-19T05:02:42;5.38;;;3.28;;
29044;SDS011;16133;49.486;12.176;2023-09-19T05:05:08;7.50;;;3.38;;
29044;SDS011;16133;49.486;12.176;2023-09-19T05:07:35;5.10;;;3.15;;
29044;SDS011;16133;49.486;12.176;2023-09-19T05:10:01;4.18;;;2.80;;
29044;SDS011;16133;49.486;12.176;2023-09-19T05:12:36;4.05;;;2.67;;
29044;SDS011;16133;49.486;12.176;2023-09-19T05:15:02;6.18;;;3.10;;
29044;SDS011;16133;49.486;12.176;2023-09-19T05:17:29;7.68;;;3.40;;
29044;SDS011;16133;49.486;12.176;2023-09-19T05:19:55;6.28;;;3.05;;
29044;SDS011;16133;49.486;12.176;2023-09-19T05:22:20;12.90;;;4.07;;
29044;SDS011;16133;49.486;12.176;2023-09-19T05:24:46;7.65;;;3.63;;
29044;SDS011;16133;49.486;12.176;2023-09-19T05:27:14;5.70;;;3.17;;
29044;SDS011;16133;49.486;12.176;2023-09-19T05:29:42;5.13;;;3.05;;
29044;SDS011;16133;49.486;12.176;2023-09-19T05:32:08;4.82;;;2.78;;
29044;SDS011;16133;49.486;12.176;2023-09-19T05:34:34;6.22;;;3.00;;
29044;SDS011;16133;49.486;12.176;2023-09-19T05:36:59;7.10;;;3.47;;
29044;SDS011;16133;49.486;12.176;2023-09-19T05:39:25;7.53;;;3.55;;
29044;SDS011;16133;49.486;12.176;2023-09-19T05:41:50;5.65;;;3.15;;
29044;SDS011;16133;49.486;12.176;2023-09-19T05:44:15;5.70;;;3.20;;
29044;SDS011;16133;49.486;12.176;2023-09-19T05:46:41;4.00;;;2.95;;
29044;SDS011;16133;49.486;12.176;2023-09-19T05:49:06;3.60;;;2.63;;
29044;SDS011;16133;49.486;12.176;2023-09-19T05:51:31;12.48;;;4.97;;
29044;SDS011;16133;49.486;12.176;2023-09-19T05:53:57;3.67;;;2.45;;
29044;SDS011;16133;49.486;12.176;2023-09-19T05:56:23;5.70;;;3.10;;
29044;SDS011;16133;49.486;12.176;2023-09-19T05:58:48;4.13;;;2.65;;
29044;SDS011;16133;49.486;12.176;2023-09-19T06:01:14;4.18;;;2.45;;
29044;SDS011;16133;49.486;12.176;2023-09-19T06:03:40;4.40;;;2.70;;
29044;SDS011;16133;49.486;12.176;2023-09-19T06:06:05;6.18;;;2.28;;
29044;SDS011;16133;49.486;12.176;2023-09-19T06:08:31;3.47;;;2.38;;
29044;SDS011;16133;49.486;12.176;2023-09-19T06:11:00;3.58;;;2.33;;
29044;SDS011;16133;49.486;12.176;2023-09-19T06:13:27;4.18;;;2.15;;
29044;SDS011;16133;49.486;12.176;2023-09-19T06:15:54;2.95;;;2.20;;
29044;SDS011;16133;49.486;12.176;2023-09-19T06:18:21;5.57;;;3.10;;
29044;SDS011;16133;49.486;12.176;2023-09-19T06:20:50;2.78;;;2.00;;
29044;SDS011;16133;49.486;12.176;2023-09-19T06:23:16;2.95;;;2.22;;
29044;SDS011;16133;49.486;12.176;2023-09-19T06:25:43;4.30;;;2.55;;
29044;SDS011;16133;49.486;12.176;2023-09-19T06:28:08;6.40;;;3.35;;
29044;SDS011;16133;49.486;12.176;2023-09-19T06:30:37;4.75;;;2.67;;
29044;SDS011;16133;49.486;12.176;2023-09-19T06:33:05;5.70;;;2.90;;
29044;SDS011;16133;49.486;12.176;2023-09-19T06:35:31;4.32;;;2.88;;
29044;SDS011;16133;49.486;12.176;2023-09-19T06:37:58;6.13;;;3.30;;
29044;SDS011;16133;49.486;12.176;2023-09-19T06:40:23;5.90;;;3.45;;
29044;SDS011;16133;49.486;12.176;2023-09-19T06:42:52;5.43;;;2.92;;
29044;SDS011;16133;49.486;12.176;2023-09-19T06:45:19;7.82;;;3.22;;
29044;SDS011;16133;49.486;12.176;2023-09-19T06:47:46;4.75;;;3.15;;
29044;SDS011;16133;49.486;12.176;2023-09-19T06:50:22;3.78;;;2.72;;
29044;SDS011;16133;49.486;12.176;2023-09-19T06:52:48;5.47;;;3.38;;
29044;SDS011;16133;49.486;12.176;2023-09-19T06:55:15;10.25;;;4.00;;
29044;SDS011;16133;49.486;12.176;2023-09-19T06:57:42;4.88;;;3.28;;
29044;SDS011;16133;49.486;12.176;2023-09-19T07:00:11;6.97;;;3.10;;
29044;SDS011;16133;49.486;12.176;2023-09-19T07:03:22;3.63;;;2.42;;
29044;SDS011;16133;49.486;12.176;2023-09-19T07:05:33;5.38;;;2.90;;
29044;SDS011;16133;49.486;12.176;2023-09-19T07:08:02;3.70;;;2.33;;
29044;SDS011;16133;49.486;12.176;2023-09-19T07:10:28;2.90;;;2.30;;
29044;SDS011;16133;49.486;12.176;2023-09-19T07:13:05;3.83;;;2.20;;
29044;SDS011;16133;49.486;12.176;2023-09-19T07:15:36;3.97;;;2.70;;
29044;SDS011;16133;49.486;12.176;2023-09-19T07:18:06;3.50;;;2.15;;
29044;SDS011;16133;49.486;12.176;2023-09-19T07:20:35;2.22;;;1.70;;
29044;SDS011;16133;49.486;12.176;2023-09-19T07:23:01;3.47;;;1.77;;
29044;SDS011;16133;49.486;12.176;2023-09-19T07:25:27;2.20;;;1.48;;
29044;SDS011;16133;49.486;12.176;2023-09-19T07:27:59;2.45;;;1.50;;
29044;SDS011;16133;49.486;12.176;2023-09-19T07:30:26;1.67;;;1.25;;
29044;SDS011;16133;49.486;12.176;2023-09-19T07:32:52;2.60;;;1.40;;
29044;SDS011;16133;49.486;12.176;2023-09-19T07:35:18;3.15;;;1.30;;
29044;SDS011;16133;49.486;12.176;2023-09-19T07:37:47;2.47;;;1.60;;
29044;SDS011;16133;49.486;12.176;2023-09-19T07:40:16;1.17;;;1.00;;
29044;SDS011;16133;49.486;12.176;2023-09-19T07:42:42;4.55;;;1.90;;
29044;SDS011;16133;49.486;12.176;2023-09-19T07:45:09;4.50;;;1.63;;
29044;SDS011;16133;49.486;12.176;2023-09-19T07:47:40;1.70;;;1.05;;
29044;SDS011;16133;49.486;12.176;2023-09-19T07:50:08;2.22;;;1.13;;
29044;SDS011;16133;49.486;12.176;2023-09-19T07:52:34;7.13;;;1.90;;
29044;SDS011;16133;49.486;12.176;2023-09-19T07:55:00;2.58;;;1.40;;
29044;SDS011;16133;49.486;12.176;2023-09-19T07:57:31;1.80;;;1.27;;
29044;SDS011;16133;49.486;12.176;2023-09-19T07:59:56;1.42;;;1.33;;
29044;SDS011;16133;49.486;12.176;2023-09-19T08:02:22;7.93;;;2.05;;
29044;SDS011;16133;49.486;12.176;2023-09-19T08:04:47;2.63;;;1.55;;
29044;SDS011;16133;49.486;12.176;2023-09-19T08:07:14;2.75;;;1.40;;
29044;SDS011;16133;49.486;12.176;2023-09-19T08:09:39;3.95;;;1.58;;
29044;SDS011;16133;49.486;12.176;2023-09-19T08:12:08;2.53;;;1.35;;
29044;SDS011;16133;49.486;12.176;2023-09-19T08:14:35;3.15;;;1.45;;
29044;SDS011;16133;49.486;12.176;2023-09-19T08:17:01;2.45;;;1.48;;
29044;SDS011;16133;49.486;12.176;2023-09-19T08:19:26;1.42;;;1.25;;
29044;SDS011;16133;49.486;12.176;2023-09-19T08:21:56;1.75;;;1.27;;
29044;SDS011;16133;49.486;12.176;2023-09-19T08:24:29;1.58;;;0.95;;
29044;SDS011;16133;49.486;12.176;2023-09-19T08:26:55;1.35;;;1.10;;
29044;SDS011;16133;49.486;12.176;2023-09-19T08:29:22;3.80;;;1.40;;
29044;SDS011;16133;49.486;12.176;2023-09-19T08:31:53;2.17;;;1.30;;
29044;SDS011;16133;49.486;12.176;2023-09-19T08:34:19;2.88;;;1.30;;
29044;SDS011;16133;49.486;12.176;2023-09-19T08:36:46;3.60;;;1.42;;
29044;SDS011;16133;49.486;12.176;2023-09-19T08:39:15;2.88;;;1.42;;
29044;SDS011;16133;49.486;12.176;2023-09-19T08:41:40;1.67;;;1.17;;
29044;SDS011;16133;49.486;12.176;2023-09-19T08:44:05;3.92;;;1.08;;
29044;SDS011;16133;49.486;12.176;2023-09-19T08:46:31;1.55;;;1.20;;
29044;SDS011;16133;49.486;12.176;2023-09-19T08:51:33;2.22;;;1.17;;
29044;SDS011;16133;49.486;12.176;2023-09-19T08:56:32;1.63;;;1.40;;
29044;SDS011;16133;49.486;12.176;2023-09-19T08:59:04;1.50;;;1.08;;
29044;SDS011;16133;49.486;12.176;2023-09-19T09:01:35;2.42;;;1.05;;
29044;SDS011;16133;49.486;12.176;2023-09-19T09:04:02;1.60;;;0.98;;
29044;SDS011;16133;49.486;12.176;2023-09-19T09:06:29;1.35;;;1.02;;
29044;SDS011;16133;49.486;12.176;2023-09-19T09:08:54;3.40;;;1.30;;
29044;SDS011;16133;49.486;12.176;2023-09-19T09:11:21;1.35;;;0.90;;
29044;SDS011;16133;49.486;12.176;2023-09-19T09:13:49;1.98;;;1.02;;
29044;SDS011;16133;49.486;12.176;2023-09-19T09:16:15;3.88;;;1.15;;
29044;SDS011;16133;49.486;12.176;2023-09-19T09:18:43;3.40;;;1.27;;
29044;SDS011;16133;49.486;12.176;2023-09-19T09:21:10;3.88;;;1.42;;
29044;SDS011;16133;49.486;12.176;2023-09-19T09:23:36;2.05;;;1.13;;
29044;SDS011;16133;49.486;12.176;2023-09-19T09:26:01;2.20;;;1.02;;
29044;SDS011;16133;49.486;12.176;2023-09-19T09:28:32;1.92;;;1.05;;
29044;SDS011;16133;49.486;12.176;2023-09-19T09:30:59;2.83;;;1.02;;
29044;SDS011;16133;49.486;12.176;2023-09-19T09:33:27;1.15;;;0.82;;
29044;SDS011;16133;49.486;12.176;2023-09-19T09:35:58;1.17;;;0.75;;
29044;SDS011;16133;49.486;12.176;2023-09-19T09:38:28;2.40;;;1.02;;
29044;SDS011;16133;49.486;12.176;2023-09-19T09:41:08;0.98;;;0.80;;
29044;SDS011;16133;49.486;12.176;2023-09-19T09:46:15;3.63;;;0.80;;
29044;SDS011;16133;49.486;12.176;2023-09-19T09:54:22;5.10;;;1.27;;
29044;SDS011;16133;49.486;12.176;2023-09-19T09:56:52;2.47;;;0.90;;
29044;SDS011;16133;49.486;12.176;2023-09-19T10:02:18;3.35;;;1.17;;
29044;SDS011;16133;49.486;12.176;2023-09-19T10:04:49;2.60;;;1.08;;
29044;SDS011;16133;49.486;12.176;2023-09-19T10:07:35;2.50;;;1.35;;
29044;SDS011;16133;49.486;12.176;2023-09-19T10:10:05;1.92;;;1.00;;
29044;SDS011;16133;49.486;12.176;2023-09-19T10:12:51;2.00;;;1.00;;
29044;SDS011;16133;49.486;12.176;2023-09-19T10:15:21;1.73;;;0.80;;
29044;SDS011;16133;49.486;12.176;2023-09-19T10:17:51;2.13;;;0.93;;
29044;SDS011;16133;49.486;12.176;2023-09-19T10:20:21;3.42;;;1.30;;
29044;SDS011;16133;49.486;12.176;2023-09-19T10:22:50;1.40;;;0.82;;
29044;SDS011;16133;49.486;12.176;2023-09-19T10:25:28;1.45;;;1.02;;
29044;SDS011;16133;49.486;12.176;2023-09-19T10:27:55;1.83;;;1.20;;
29044;SDS011;16133;49.486;12.176;2023-09-19T10:30:24;1.20;;;0.88;;
29044;SDS011;16133;49.486;12.176;2023-09-19T10:32:56;1.98;;;1.17;;
29044;SDS011;16133;49.486;12.176;2023-09-19T10:35:30;1.48;;;0.95;;
29044;SDS011;16133;49.486;12.176;2023-09-19T10:38:01;2.88;;;1.00;;
29044;SDS011;16133;49.486;12.176;2023-09-19T10:40:28;1.08;;;0.93;;
29044;SDS011;16133;49.486;12.176;2023-09-19T10:43:03;3.28;;;1.27;;
29044;SDS011;16133;49.486;12.176;2023-09-19T10:45:33;1.85;;;1.10;;
29044;SDS011;16133;49.486;12.176;2023-09-19T10:48:00;2.17;;;1.17;;
29044;SDS011;16133;49.486;12.176;2023-09-19T10:50:31;1.95;;;1.00;;
29044;SDS011;16133;49.486;12.176;2023-09-19T10:53:02;2.80;;;1.20;;
29044;SDS011;16133;49.486;12.176;2023-09-19T10:55:33;3.53;;;1.10;;
29044;SDS011;16133;49.486;12.176;2023-09-19T10:58:05;2.03;;;1.05;;
29044;SDS011;16133;49.486;12.176;2023-09-19T11:00:50;1.77;;;1.02;;
29044;SDS011;16133;49.486;12.176;2023-09-19T11:03:18;1.27;;;1.02;;
29044;SDS011;16133;49.486;12.176;2023-09-19T11:30:33;3.13;;;1.48;;
29044;SDS011;16133;49.486;12.176;2023-09-19T11:33:16;2.63;;;1.30;;
29044;SDS011;16133;49.486;12.176;2023-09-19T11:36:04;2.58;;;1.15;;
29044;SDS011;16133;49.486;12.176;2023-09-19T11:46:34;5.18;;;1.15;;
29044;SDS011;16133;49.486;12.176;2023-09-19T11:49:30;4.43;;;1.95;;
29044;SDS011;16133;49.486;12.176;2023-09-19T11:52:01;4.63;;;1.50;;
29044;SDS011;16133;49.486;12.176;2023-09-19T11:54:30;2.10;;;1.30;;
29044;SDS011;16133;49.486;12.176;2023-09-19T11:56:57;2.28;;;1.23;;
29044;SDS011;16133;49.486;12.176;2023-09-19T11:59:24;2.92;;;1.10;;
29044;SDS011;16133;49.486;12.176;2023-09-19T12:04:43;2.20;;;1.45;;
29044;SDS011;16133;49.486;12.176;2023-09-19T12:07:13;2.70;;;1.15;;
29044;SDS011;16133;49.486;12.176;2023-09-19T12:09:44;2.17;;;1.60;;
29044;SDS011;16133;49.486;12.176;2023-09-19T12:12:25;2.42;;;1.45;;
29044;SDS011;16133;49.486;12.176;2023-09-19T12:14:52;4.90;;;1.60;;
29044;SDS011;16133;49.486;12.176;2023-09-19T12:17:19;3.10;;;1.30;;
29044;SDS011;16133;49.486;12.176;2023-09-19T12:19:52;2.60;;;1.65;;
29044;SDS011;16133;49.486;12.176;2023-09-19T12:22:19;6.28;;;1.30;;
29044;SDS011;16133;49.486;12.176;2023-09-19T12:24:46;1.90;;;1.20;;
29044;SDS011;16133;49.486;12.176;2023-09-19T12:27:12;4.35;;;1.38;;
29044;SDS011;16133;49.486;12.176;2023-09-19T12:29:45;1.67;;;1.15;;
29044;SDS011;16133;49.486;12.176;2023-09-19T12:32:13;2.95;;;1.60;;
29044;SDS011;16133;49.486;12.176;2023-09-19T12:34:41;3.35;;;1.90;;
29044;SDS011;16133;49.486;12.176;2023-09-19T12:37:14;4.22;;;2.13;;
29044;SDS011;16133;49.486;12.176;2023-09-19T12:39:47;4.55;;;1.60;;
29044;SDS011;16133;49.486;12.176;2023-09-19T12:42:14;1.70;;;1.33;;
29044;SDS011;16133;49.486;12.176;2023-09-19T12:44:42;6.00;;;1.92;;
29044;SDS011;16133;49.486;12.176;2023-09-19T12:47:09;2.50;;;1.67;;
29044;SDS011;16133;49.486;12.176;2023-09-19T12:52:39;3.97;;;1.85;;
29044;SDS011;16133;49.486;12.176;2023-09-19T12:55:05;4.90;;;1.80;;
29044;SDS011;16133;49.486;12.176;2023-09-19T12:57:36;4.20;;;1.58;;
29044;SDS011;16133;49.486;12.176;2023-09-19T13:00:05;3.65;;;1.80;;
29044;SDS011;16133;49.486;12.176;2023-09-19T13:02:31;1.75;;;1.30;;
29044;SDS011;16133;49.486;12.176;2023-09-19T13:04:57;2.88;;;1.50;;
29044;SDS011;16133;49.486;12.176;2023-09-19T13:07:41;2.38;;;1.67;;
29044;SDS011;16133;49.486;12.176;2023-09-19T13:10:12;7.63;;;1.80;;
29044;SDS011;16133;49.486;12.176;2023-09-19T13:12:40;3.78;;;1.60;;
29044;SDS011;16133;49.486;12.176;2023-09-19T13:15:12;3.17;;;1.67;;
29044;SDS011;16133;49.486;12.176;2023-09-19T13:17:48;2.40;;;1.55;;
29044;SDS011;16133;49.486;12.176;2023-09-19T13:20:21;2.55;;;1.50;;
29044;SDS011;16133;49.486;12.176;2023-09-19T13:22:52;4.15;;;1.60;;
29044;SDS011;16133;49.486;12.176;2023-09-19T13:25:25;2.08;;;1.50;;
29044;SDS011;16133;49.486;12.176;2023-09-19T13:27:53;2.67;;;1.40;;
29044;SDS011;16133;49.486;12.176;2023-09-19T13:30:24;2.75;;;1.48;;
29044;SDS011;16133;49.486;12.176;2023-09-19T13:33:05;2.28;;;1.42;;
29044;SDS011;16133;49.486;12.176;2023-09-19T13:35:32;3.33;;;1.45;;
29044;SDS011;16133;49.486;12.176;2023-09-19T13:37:57;3.55;;;1.40;;
29044;SDS011;16133;49.486;12.176;2023-09-19T13:40:23;3.88;;;1.30;;
29044;SDS011;16133;49.486;12.176;2023-09-19T13:42:49;1.45;;;0.93;;
29044;SDS011;16133;49.486;12.176;2023-09-19T13:45:18;2.60;;;0.90;;
29044;SDS011;16133;49.486;12.176;2023-09-19T13:47:47;1.33;;;0.90;;
29044;SDS011;16133;49.486;12.176;2023-09-19T13:50:12;2.47;;;0.80;;
29044;SDS011;16133;49.486;12.176;2023-09-19T13:52:37;1.17;;;0.80;;
29044;SDS011;16133;49.486;12.176;2023-09-19T13:55:03;1.95;;;1.02;;
29044;SDS011;16133;49.486;12.176;2023-09-19T13:57:31;1.20;;;0.80;;
29044;SDS011;16133;49.486;12.176;2023-09-19T13:59:58;2.28;;;0.93;;
29044;SDS011;16133;49.486;12.176;2023-09-19T14:02:23;1.92;;;0.85;;
29044;SDS011;16133;49.486;12.176;2023-09-19T14:04:49;3.25;;;1.40;;
29044;SDS011;16133;49.486;12.176;2023-09-19T14:07:15;1.20;;;0.90;;
29044;SDS011;16133;49.486;12.176;2023-09-19T14:09:42;3.45;;;1.45;;
29044;SDS011;16133;49.486;12.176;2023-09-19T14:12:08;2.25;;;0.85;;
29044;SDS011;16133;49.486;12.176;2023-09-19T14:14:34;1.65;;;1.20;;
29044;SDS011;16133;49.486;12.176;2023-09-19T14:16:59;1.70;;;1.10;;
29044;SDS011;16133;49.486;12.176;2023-09-19T14:19:27;1.65;;;0.90;;
29044;SDS011;16133;49.486;12.176;2023-09-19T14:21:53;2.20;;;1.65;;
29044;SDS011;16133;49.486;12.176;2023-09-19T14:24:21;3.30;;;1.30;;
29044;SDS011;16133;49.486;12.176;2023-09-19T14:26:48;3.60;;;0.90;;
29044;SDS011;16133;49.486;12.176;2023-09-19T14:29:14;2.38;;;1.00;;
29044;SDS011;16133;49.486;12.176;2023-09-19T14:31:40;1.58;;;0.75;;
29044;SDS011;16133;49.486;12.176;2023-09-19T14:34:06;1.63;;;1.00;;
29044;SDS011;16133;49.486;12.176;2023-09-19T14:36:32;4.75;;;1.10;;
29044;SDS011;16133;49.486;12.176;2023-09-19T14:38:58;2.15;;;1.05;;
29044;SDS011;16133;49.486;12.176;2023-09-19T14:41:24;3.28;;;0.88;;
29044;SDS011;16133;49.486;12.176;2023-09-19T14:43:54;3.42;;;0.80;;
29044;SDS011;16133;49.486;12.176;2023-09-19T14:46:22;3.28;;;1.00;;
29044;SDS011;16133;49.486;12.176;2023-09-19T14:48:49;2.67;;;0.90;;
29044;SDS011;16133;49.486;12.176;2023-09-19T14:51:16;2.10;;;1.45;;
29044;SDS011;16133;49.486;12.176;2023-09-19T14:53:43;2.13;;;0.98;;
29044;SDS011;16133;49.486;12.176;2023-09-19T14:56:10;1.85;;;1.10;;
29044;SDS011;16133;49.486;12.176;2023-09-19T14:58:36;1.63;;;0.90;;
29044;SDS011;16133;49.486;12.176;2023-09-19T15:01:11;4.63;;;0.90;;
29044;SDS011;16133;49.486;12.176;2023-09-19T15:03:39;3.63;;;0.98;;
29044;SDS011;16133;49.486;12.176;2023-09-19T15:06:15;1.85;;;0.80;;
29044;SDS011;16133;49.486;12.176;2023-09-19T15:08:42;1.30;;;1.00;;
29044;SDS011;16133;49.486;12.176;2023-09-19T15:11:19;3.58;;;1.05;;
29044;SDS011;16133;49.486;12.176;2023-09-19T15:13:45;7.55;;;1.00;;
29044;SDS011;16133;49.486;12.176;2023-09-19T15:16:12;1.55;;;0.90;;
29044;SDS011;16133;49.486;12.176;2023-09-19T15:18:42;3.13;;;1.10;;
29044;SDS011;16133;49.486;12.176;2023-09-19T15:21:12;3.05;;;0.80;;
29044;SDS011;16133;49.486;12.176;2023-09-19T15:23:38;1.20;;;1.00;;
29044;SDS011;16133;49.486;12.176;2023-09-19T15:26:09;2.95;;;1.08;;
29044;SDS011;16133;49.486;12.176;2023-09-19T15:28:38;4.78;;;1.38;;
29044;SDS011;16133;49.486;12.176;2023-09-19T15:31:13;2.60;;;1.15;;
29044;SDS011;16133;49.486;12.176;2023-09-19T15:33:39;4.07;;;1.52;;
29044;SDS011;16133;49.486;12.176;2023-09-19T15:36:06;2.97;;;1.08;;
29044;SDS011;16133;49.486;12.176;2023-09-19T15:39:19;3.08;;;0.95;;
29044;SDS011;16133;49.486;12.176;2023-09-19T15:41:28;3.40;;;1.10;;
29044;SDS011;16133;49.486;12.176;2023-09-19T15:43:55;2.95;;;1.08;;
29044;SDS011;16133;49.486;12.176;2023-09-19T15:46:24;1.33;;;0.80;;
29044;SDS011;16133;49.486;12.176;2023-09-19T15:48:51;1.10;;;1.00;;